Time;durP1;ratioP1;P1;durP2;ratioP2;P2;SDS_P1;SDS_P2;PMS_P1;PMS_P2;Temp;Humidity;BMP_temperature;BMP_pressure;BME280_temperature;BME280_humidity;BME280_pressure;Samples;Min_cycle;Max_cycle;Signal;HPM_P1;HPM_P2
2022/04/20 00:00:41;;;;;;;10.73;4.78;;;;;;;;;;4996867;28;20237;-62
2022/04/20 00:03:07;;;;;;;9.95;5.30;;;;;;;;;;4995094;28;20548;-63
2022/04/20 00:05:33;;;;;;;10.65;5.10;;;;;;;;;;4995315;28;20213;-62
2022/04/20 00:08:00;;;;;;;9.30;4.68;;;;;;;;;;4996514;28;20676;-62
2022/04/20 00:10:25;;;;;;;9.07;5.13;;;;;;;;;;4994900;28;21457;-62
2022/04/20 00:12:50;;;;;;;9.10;4.57;;;;;;;;;;4996424;28;20201;-63
2022/04/20 00:15:16;;;;;;;9.13;5.30;;;;;;;;;;4995907;28;20217;-62
2022/04/20 00:17:41;;;;;;;9.07;4.90;;;;;;;;;;4995397;28;20209;-63
2022/04/20 00:20:07;;;;;;;7.78;5.00;;;;;;;;;;4995752;28;20217;-62
2022/04/20 00:22:32;;;;;;;8.73;5.20;;;;;;;;;;4996020;28;20201;-63
2022/04/20 00:24:57;;;;;;;10.10;4.78;;;;;;;;;;4995255;28;20216;-63
2022/04/20 00:27:22;;;;;;;9.60;4.57;;;;;;;;;;4995588;28;20220;-63
2022/04/20 00:29:48;;;;;;;7.93;4.60;;;;;;;;;;4996004;28;20319;-63
2022/04/20 00:32:13;;;;;;;7.97;4.38;;;;;;;;;;4994869;28;20221;-62
2022/04/20 00:34:38;;;;;;;10.07;5.32;;;;;;;;;;4996192;28;20229;-64
2022/04/20 00:37:04;;;;;;;7.55;4.80;;;;;;;;;;4968832;28;20226;-63
2022/04/20 00:39:29;;;;;;;8.55;5.13;;;;;;;;;;4965884;28;20214;-64
2022/04/20 00:41:54;;;;;;;10.05;4.53;;;;;;;;;;4966716;28;20249;-64
2022/04/20 00:44:20;;;;;;;8.13;5.03;;;;;;;;;;4972718;28;20687;-65
2022/04/20 00:46:46;;;;;;;8.88;5.35;;;;;;;;;;5000891;28;20323;-64
2022/04/20 00:49:11;;;;;;;8.88;4.65;;;;;;;;;;4973139;28;20202;-64
2022/04/20 00:51:36;;;;;;;9.88;4.97;;;;;;;;;;4957662;28;20302;-64
2022/04/20 00:54:01;;;;;;;9.50;4.95;;;;;;;;;;4975250;28;20771;-63
2022/04/20 00:56:27;;;;;;;9.52;5.20;;;;;;;;;;4997340;28;20260;-64
2022/04/20 00:58:52;;;;;;;8.77;4.80;;;;;;;;;;4966737;28;20261;-63
2022/04/20 01:01:18;;;;;;;10.52;4.90;;;;;;;;;;4965952;28;20236;-64
2022/04/20 01:03:43;;;;;;;7.63;4.68;;;;;;;;;;4980897;28;20214;-64
2022/04/20 01:06:08;;;;;;;8.55;4.82;;;;;;;;;;4964937;28;20220;-64
2022/04/20 01:08:34;;;;;;;7.95;4.55;;;;;;;;;;4965293;28;20694;-64
2022/04/20 01:10:59;;;;;;;7.25;4.53;;;;;;;;;;4993787;28;20229;-64
2022/04/20 01:13:24;;;;;;;9.10;4.80;;;;;;;;;;4976084;28;20693;-64
2022/04/20 01:15:50;;;;;;;8.63;4.47;;;;;;;;;;4991898;28;20209;-64
2022/04/20 01:18:15;;;;;;;9.02;4.45;;;;;;;;;;4979859;28;20256;-64
2022/04/20 01:20:41;;;;;;;8.95;4.38;;;;;;;;;;4998804;28;20209;-64
2022/04/20 01:23:06;;;;;;;7.18;4.65;;;;;;;;;;4984280;28;20260;-63
2022/04/20 01:25:32;;;;;;;8.60;4.60;;;;;;;;;;5000095;28;20249;-64
2022/04/20 01:27:57;;;;;;;7.50;4.60;;;;;;;;;;4984165;28;20669;-64
2022/04/20 01:30:22;;;;;;;7.72;4.20;;;;;;;;;;4999464;28;20803;-64
2022/04/20 01:32:48;;;;;;;6.47;4.50;;;;;;;;;;4984439;28;20728;-64
2022/04/20 01:35:13;;;;;;;9.00;5.00;;;;;;;;;;4975935;28;20263;-64
2022/04/20 01:37:38;;;;;;;7.72;4.93;;;;;;;;;;4976306;28;20229;-64
2022/04/20 01:40:04;;;;;;;7.30;4.57;;;;;;;;;;4977092;28;20209;-63
2022/04/20 01:42:29;;;;;;;6.78;4.15;;;;;;;;;;4998260;28;20224;-64
2022/04/20 01:44:54;;;;;;;6.53;3.95;;;;;;;;;;4970322;28;20608;-64
2022/04/20 01:47:19;;;;;;;10.25;4.72;;;;;;;;;;4964827;28;20308;-64
2022/04/20 01:49:45;;;;;;;6.63;4.38;;;;;;;;;;4964619;28;21108;-63
2022/04/20 01:52:10;;;;;;;6.97;4.38;;;;;;;;;;4964507;28;20217;-64
2022/04/20 01:54:35;;;;;;;7.35;4.28;;;;;;;;;;4983474;28;20221;-64
2022/04/20 01:57:01;;;;;;;7.43;3.92;;;;;;;;;;4973633;28;20225;-63
2022/04/20 01:59:26;;;;;;;8.93;4.28;;;;;;;;;;4957361;28;20226;-64
2022/04/20 02:04:35;;;;;;;5.78;4.18;;;;;;;;;;4981825;28;20212;-64
2022/04/20 02:07:00;;;;;;;6.78;3.97;;;;;;;;;;4983709;28;20217;-62
2022/04/20 02:09:26;;;;;;;9.20;4.38;;;;;;;;;;4983384;28;20312;-63
2022/04/20 02:11:51;;;;;;;7.82;4.32;;;;;;;;;;4984092;28;20239;-64
2022/04/20 02:14:16;;;;;;;8.30;4.72;;;;;;;;;;4983197;28;20219;-63
2022/04/20 02:16:42;;;;;;;8.63;4.28;;;;;;;;;;4983419;28;20300;-63
2022/04/20 02:19:07;;;;;;;7.75;4.15;;;;;;;;;;4978909;28;20300;-63
2022/04/20 02:21:32;;;;;;;9.70;4.97;;;;;;;;;;4976142;28;20213;-64
2022/04/20 02:23:57;;;;;;;7.03;4.28;;;;;;;;;;4975211;28;20777;-63
2022/04/20 02:26:23;;;;;;;7.57;3.90;;;;;;;;;;4994323;28;20228;-64
2022/04/20 02:28:48;;;;;;;7.80;4.05;;;;;;;;;;4983237;28;20256;-64
2022/04/20 02:31:14;;;;;;;6.93;3.97;;;;;;;;;;4982546;28;20237;-63
2022/04/20 02:33:40;;;;;;;5.63;3.90;;;;;;;;;;4983121;28;20216;-64
2022/04/20 02:36:05;;;;;;;6.35;3.90;;;;;;;;;;4983298;28;20328;-63
2022/04/20 02:38:31;;;;;;;6.50;3.60;;;;;;;;;;4982693;28;20234;-64
2022/04/20 02:40:56;;;;;;;6.85;3.78;;;;;;;;;;4996856;28;20331;-64
2022/04/20 02:43:21;;;;;;;6.95;3.72;;;;;;;;;;4973097;28;20205;-64
2022/04/20 02:45:46;;;;;;;7.40;3.65;;;;;;;;;;4955855;28;20221;-64
2022/04/20 02:48:12;;;;;;;7.57;3.60;;;;;;;;;;4972158;28;20616;-64
2022/04/20 02:50:37;;;;;;;6.07;4.22;;;;;;;;;;4982268;28;20233;-63
2022/04/20 02:53:02;;;;;;;6.75;3.75;;;;;;;;;;4982517;28;20209;-63
2022/04/20 02:55:28;;;;;;;5.25;3.72;;;;;;;;;;4982815;28;20591;-64
2022/04/20 02:57:53;;;;;;;5.80;3.75;;;;;;;;;;4971674;28;20217;-63
2022/04/20 03:00:18;;;;;;;8.55;3.85;;;;;;;;;;4963176;28;20240;-64
2022/04/20 03:02:44;;;;;;;10.35;3.75;;;;;;;;;;4964339;28;20309;-64
2022/04/20 03:05:09;;;;;;;8.13;3.80;;;;;;;;;;4954418;28;20214;-63
2022/04/20 03:07:34;;;;;;;7.35;3.83;;;;;;;;;;4972982;28;20211;-63
2022/04/20 03:10:00;;;;;;;8.38;3.78;;;;;;;;;;4975477;28;20264;-63
2022/04/20 03:12:25;;;;;;;7.65;3.70;;;;;;;;;;4979715;28;20594;-63
2022/04/20 03:14:54;;;;;;;8.90;3.80;;;;;;;;;;4982724;28;20216;-64
2022/04/20 03:17:19;;;;;;;7.50;4.03;;;;;;;;;;4982325;28;20213;-63
2022/04/20 03:19:45;;;;;;;5.97;3.28;;;;;;;;;;4997106;28;20580;-64
2022/04/20 03:22:10;;;;;;;7.00;4.03;;;;;;;;;;4982133;28;20300;-63
2022/04/20 03:24:35;;;;;;;9.75;3.50;;;;;;;;;;4983234;28;20737;-64
2022/04/20 03:27:00;;;;;;;5.65;3.45;;;;;;;;;;4978227;28;20282;-62
2022/04/20 03:29:26;;;;;;;7.68;3.83;;;;;;;;;;4974652;28;20221;-64
2022/04/20 03:31:52;;;;;;;7.30;3.95;;;;;;;;;;4969764;28;20218;-64
2022/04/20 03:34:17;;;;;;;5.57;3.17;;;;;;;;;;4962301;28;20293;-64
2022/04/20 03:36:43;;;;;;;5.22;3.25;;;;;;;;;;4967819;28;20372;-63
2022/04/20 03:39:08;;;;;;;5.50;3.55;;;;;;;;;;4966980;28;20221;-63
2022/04/20 03:41:33;;;;;;;7.32;3.72;;;;;;;;;;4967217;28;20411;-64
2022/04/20 03:43:58;;;;;;;6.55;3.58;;;;;;;;;;4974415;28;20212;-64
2022/04/20 03:46:24;;;;;;;5.22;3.30;;;;;;;;;;4986208;28;20338;-64
2022/04/20 03:48:50;;;;;;;5.10;3.15;;;;;;;;;;4984664;28;20217;-63
2022/04/20 03:51:15;;;;;;;8.10;3.30;;;;;;;;;;4978400;28;20229;-64
2022/04/20 03:53:40;;;;;;;7.28;3.30;;;;;;;;;;4978485;28;20213;-64
2022/04/20 03:56:06;;;;;;;8.93;3.30;;;;;;;;;;4978343;28;20247;-63
2022/04/20 03:58:31;;;;;;;6.68;3.40;;;;;;;;;;4970269;28;20260;-64
2022/04/20 04:00:56;;;;;;;8.57;3.80;;;;;;;;;;4967441;28;20616;-63
2022/04/20 04:03:22;;;;;;;8.45;3.47;;;;;;;;;;4999953;28;20205;-64
2022/04/20 04:05:47;;;;;;;4.90;3.40;;;;;;;;;;4984527;28;20240;-63
2022/04/20 04:08:13;;;;;;;5.65;3.30;;;;;;;;;;4985608;28;20209;-63
2022/04/20 04:10:38;;;;;;;5.70;3.22;;;;;;;;;;4985474;28;20236;-64
2022/04/20 04:13:03;;;;;;;5.85;3.17;;;;;;;;;;4979671;28;20213;-63
2022/04/20 04:15:28;;;;;;;6.63;3.30;;;;;;;;;;4992197;28;20217;-63
2022/04/20 04:17:56;;;;;;;6.75;3.50;;;;;;;;;;4978710;28;20205;-63
2022/04/20 04:20:22;;;;;;;6.38;3.20;;;;;;;;;;4983400;28;20299;-63
2022/04/20 04:22:48;;;;;;;6.65;3.20;;;;;;;;;;4985390;28;20311;-64
2022/04/20 04:25:13;;;;;;;7.82;3.90;;;;;;;;;;4985543;28;20628;-64
2022/04/20 04:27:38;;;;;;;4.85;3.20;;;;;;;;;;4986010;28;20213;-63
2022/04/20 04:30:04;;;;;;;5.45;3.35;;;;;;;;;;4984816;28;20253;-63
2022/04/20 04:32:29;;;;;;;5.80;3.25;;;;;;;;;;4985641;28;20212;-63
2022/04/20 04:34:55;;;;;;;5.97;3.17;;;;;;;;;;4982201;28;20225;-64
2022/04/20 04:37:20;;;;;;;6.53;3.35;;;;;;;;;;4976752;28;20234;-64
2022/04/20 04:39:46;;;;;;;5.05;3.40;;;;;;;;;;4977646;28;20228;-64
2022/04/20 04:42:11;;;;;;;4.88;3.40;;;;;;;;;;4980419;28;20682;-64
2022/04/20 04:44:36;;;;;;;6.50;3.30;;;;;;;;;;4986844;28;20221;-64
2022/04/20 04:49:45;;;;;;;10.65;3.45;;;;;;;;;;4985099;28;21321;-66
2022/04/20 04:52:11;;;;;;;6.20;3.10;;;;;;;;;;4984267;28;20759;-64
2022/04/20 04:54:37;;;;;;;5.65;3.05;;;;;;;;;;4985422;28;20240;-64
2022/04/20 04:57:02;;;;;;;5.53;3.10;;;;;;;;;;4978101;28;20312;-65
2022/04/20 04:59:28;;;;;;;4.68;3.15;;;;;;;;;;4957940;28;20221;-64
2022/04/20 05:01:53;;;;;;;7.45;3.20;;;;;;;;;;4958270;28;20212;-64
2022/04/20 05:04:19;;;;;;;5.95;3.28;;;;;;;;;;4959575;28;20218;-64
2022/04/20 05:06:44;;;;;;;7.72;2.83;;;;;;;;;;4965312;28;20210;-64
2022/04/20 05:09:10;;;;;;;6.78;3.30;;;;;;;;;;4965421;28;20228;-64
2022/04/20 05:11:35;;;;;;;4.65;2.97;;;;;;;;;;4965406;28;20428;-64
2022/04/20 05:14:00;;;;;;;4.05;2.70;;;;;;;;;;4984200;28;20655;-63
2022/04/20 05:16:26;;;;;;;4.10;2.53;;;;;;;;;;4981687;28;20312;-65
2022/04/20 05:18:51;;;;;;;4.57;2.80;;;;;;;;;;4966427;28;20740;-65
2022/04/20 05:21:17;;;;;;;5.30;2.42;;;;;;;;;;4981988;28;20588;-64
2022/04/20 05:23:42;;;;;;;8.65;3.20;;;;;;;;;;4995036;28;20573;-61
2022/04/20 05:26:07;;;;;;;6.23;3.00;;;;;;;;;;4992831;28;20427;-64
2022/04/20 05:28:33;;;;;;;5.38;2.33;;;;;;;;;;4995083;28;20201;-64
2022/04/20 05:30:58;;;;;;;5.22;2.67;;;;;;;;;;4994493;28;20307;-65
2022/04/20 05:33:23;;;;;;;4.70;2.65;;;;;;;;;;4993784;28;20220;-64
2022/04/20 05:35:49;;;;;;;8.52;3.13;;;;;;;;;;4994757;28;20355;-64
2022/04/20 05:43:41;;;;;;;4.72;2.42;;;;;;;;;;4994250;28;20275;-63
2022/04/20 05:46:07;;;;;;;7.13;2.60;;;;;;;;;;4993179;28;20209;-64
2022/04/20 05:48:32;;;;;;;6.82;2.63;;;;;;;;;;4993287;28;20575;-63
2022/04/20 05:50:58;;;;;;;4.10;2.65;;;;;;;;;;4993901;28;20239;-64
2022/04/20 05:53:23;;;;;;;5.60;2.25;;;;;;;;;;4993459;28;20216;-64
2022/04/20 05:55:48;;;;;;;6.30;2.85;;;;;;;;;;4992379;28;20692;-64
2022/04/20 05:58:13;;;;;;;5.45;2.80;;;;;;;;;;4993066;28;20221;-62
2022/04/20 06:00:39;;;;;;;5.43;3.22;;;;;;;;;;4993601;28;20267;-63
2022/04/20 06:03:04;;;;;;;4.40;2.67;;;;;;;;;;4992482;28;20285;-63
2022/04/20 06:05:30;;;;;;;6.28;2.60;;;;;;;;;;4993623;28;20212;-62
2022/04/20 06:07:55;;;;;;;5.45;2.60;;;;;;;;;;4992535;28;20303;-63
2022/04/20 06:10:20;;;;;;;4.90;2.75;;;;;;;;;;4990151;28;20288;-63
2022/04/20 06:12:46;;;;;;;8.13;2.65;;;;;;;;;;4992652;28;20259;-63
2022/04/20 06:15:11;;;;;;;4.93;2.47;;;;;;;;;;5000837;28;20676;-63
2022/04/20 06:17:37;;;;;;;3.88;2.58;;;;;;;;;;5013220;28;20219;-63
2022/04/20 06:20:02;;;;;;;5.35;2.70;;;;;;;;;;5003264;28;20244;-63
2022/04/20 06:22:28;;;;;;;6.15;2.72;;;;;;;;;;4992958;28;20209;-64
2022/04/20 06:24:53;;;;;;;3.90;2.05;;;;;;;;;;4993143;28;20216;-64
2022/04/20 06:27:18;;;;;;;4.90;2.83;;;;;;;;;;5001832;28;20205;-64
2022/04/20 06:29:44;;;;;;;8.18;2.65;;;;;;;;;;4989024;28;20213;-64
2022/04/20 06:32:09;;;;;;;3.72;2.17;;;;;;;;;;4994071;28;20240;-64
2022/04/20 06:34:34;;;;;;;4.93;2.58;;;;;;;;;;4999111;28;20205;-64
2022/04/20 06:37:00;;;;;;;8.50;3.00;;;;;;;;;;4996674;28;20213;-65
2022/04/20 06:39:25;;;;;;;5.63;2.90;;;;;;;;;;5004536;28;20220;-65
2022/04/20 06:41:51;;;;;;;5.82;2.90;;;;;;;;;;5008921;28;20270;-64
2022/04/20 06:44:17;;;;;;;4.30;2.58;;;;;;;;;;4991331;28;20221;-64
2022/04/20 06:46:42;;;;;;;5.47;2.60;;;;;;;;;;4991468;28;20580;-64
2022/04/20 06:49:07;;;;;;;5.20;2.72;;;;;;;;;;4992809;28;20221;-64
2022/04/20 06:58:31;;;;;;;5.72;3.15;;;;;;;;;;4992652;28;20225;-65
2022/04/20 06:59:45;;;;;;;4.80;3.00;;;;;;;;;;4993403;28;20255;-65
2022/04/20 07:02:11;;;;;;;5.07;2.80;;;;;;;;;;4992869;28;20213;-65
2022/04/20 07:04:36;;;;;;;7.78;2.72;;;;;;;;;;4992188;28;20220;-65
2022/04/20 07:07:01;;;;;;;6.50;2.67;;;;;;;;;;4991024;28;20672;-63
2022/04/20 07:09:26;;;;;;;6.30;2.90;;;;;;;;;;4992858;28;20217;-64
2022/04/20 07:11:52;;;;;;;5.55;2.78;;;;;;;;;;4992582;28;20291;-64
2022/04/20 07:14:17;;;;;;;5.43;3.13;;;;;;;;;;4992685;28;20221;-64
2022/04/20 07:16:42;;;;;;;7.15;2.90;;;;;;;;;;4993322;28;20304;-65
2022/04/20 07:19:07;;;;;;;5.88;2.92;;;;;;;;;;4991398;28;20224;-64
2022/04/20 07:21:33;;;;;;;6.90;2.90;;;;;;;;;;4992688;28;20606;-65
2022/04/20 07:23:58;;;;;;;5.80;2.70;;;;;;;;;;4992565;28;20223;-64
2022/04/20 07:26:26;;;;;;;9.75;2.85;;;;;;;;;;4991968;28;20248;-64
2022/04/20 07:28:51;;;;;;;5.75;3.13;;;;;;;;;;4993100;28;20212;-65
2022/04/20 07:31:16;;;;;;;6.35;3.42;;;;;;;;;;4992640;28;20224;-64
2022/04/20 07:33:41;;;;;;;6.50;2.90;;;;;;;;;;4992218;28;20275;-65
2022/04/20 07:36:07;;;;;;;7.03;3.00;;;;;;;;;;4992377;28;20213;-65
2022/04/20 07:38:32;;;;;;;3.95;2.55;;;;;;;;;;4993140;28;20296;-64
2022/04/20 07:40:57;;;;;;;5.63;2.70;;;;;;;;;;4991975;28;20680;-66
2022/04/20 07:43:23;;;;;;;5.32;3.17;;;;;;;;;;4992619;28;20561;-65
2022/04/20 07:45:48;;;;;;;5.70;2.97;;;;;;;;;;4992942;28;20576;-65
2022/04/20 07:48:13;;;;;;;6.80;3.00;;;;;;;;;;4990390;28;20209;-64
2022/04/20 07:50:38;;;;;;;6.70;2.70;;;;;;;;;;4989784;28;20217;-65
2022/04/20 07:53:05;;;;;;;5.80;2.72;;;;;;;;;;4992350;28;20579;-64
2022/04/20 07:55:31;;;;;;;7.22;3.00;;;;;;;;;;4991502;28;20229;-65
2022/04/20 07:57:57;;;;;;;6.55;3.30;;;;;;;;;;4991252;28;20209;-64
2022/04/20 08:00:23;;;;;;;5.70;3.00;;;;;;;;;;4991298;28;20216;-65
2022/04/20 08:02:48;;;;;;;4.60;2.75;;;;;;;;;;4993696;28;20264;-65
2022/04/20 08:05:14;;;;;;;6.05;2.70;;;;;;;;;;4987815;28;20687;-65
2022/04/20 08:07:40;;;;;;;5.78;2.95;;;;;;;;;;4972514;28;20202;-65
2022/04/20 08:10:06;;;;;;;5.55;2.80;;;;;;;;;;4972275;28;20237;-64
2022/04/20 08:12:35;;;;;;;5.38;2.95;;;;;;;;;;4971963;28;20244;-65
2022/04/20 08:15:01;;;;;;;4.45;2.58;;;;;;;;;;4972197;28;20202;-64
2022/04/20 08:17:26;;;;;;;5.28;2.92;;;;;;;;;;4974218;28;20221;-65
2022/04/20 08:19:51;;;;;;;5.70;2.80;;;;;;;;;;4976424;28;20210;-65
2022/04/20 08:22:16;;;;;;;7.15;2.88;;;;;;;;;;4975385;28;20290;-65
2022/04/20 08:24:47;;;;;;;4.75;2.83;;;;;;;;;;4976516;28;20217;-65
2022/04/20 08:27:14;;;;;;;3.95;2.35;;;;;;;;;;4976236;28;20752;-65
2022/04/20 08:29:39;;;;;;;4.32;2.47;;;;;;;;;;4975992;28;20217;-65
2022/04/20 08:32:05;;;;;;;5.40;2.65;;;;;;;;;;4999060;28;20263;-64
2022/04/20 08:34:30;;;;;;;5.13;3.00;;;;;;;;;;5015402;28;20300;-63
2022/04/20 08:36:55;;;;;;;4.22;2.40;;;;;;;;;;5014869;28;20201;-63
2022/04/20 08:39:21;;;;;;;6.22;2.65;;;;;;;;;;5005739;28;20351;-69
2022/04/20 08:41:47;;;;;;;7.15;2.75;;;;;;;;;;4995783;28;20209;-67
2022/04/20 08:44:12;;;;;;;3.92;2.60;;;;;;;;;;4994812;28;20676;-65
2022/04/20 08:46:39;;;;;;;5.22;2.60;;;;;;;;;;4994613;28;20243;-70
2022/04/20 08:49:04;;;;;;;7.13;2.83;;;;;;;;;;4993998;28;20220;-71
2022/04/20 08:52:37;;;;;;;5.78;2.42;;;;;;;;;;4994772;28;20217;-69
2022/04/20 08:54:14;;;;;;;7.57;4.30;;;;;;;;;;4993690;28;20213;-68
2022/04/20 08:59:24;;;;;;;5.90;3.00;;;;;;;;;;4994615;28;20228;-63
2022/04/20 09:01:49;;;;;;;4.97;2.80;;;;;;;;;;4994366;28;20672;-63
2022/04/20 09:04:14;;;;;;;5.93;2.50;;;;;;;;;;4993138;28;20221;-63
2022/04/20 09:06:44;;;;;;;6.80;2.80;;;;;;;;;;4995198;28;20661;-63
2022/04/20 09:09:09;;;;;;;12.23;3.20;;;;;;;;;;4994472;28;20680;-63
2022/04/20 09:11:35;;;;;;;6.85;2.63;;;;;;;;;;4994330;28;20221;-63
2022/04/20 09:14:10;;;;;;;5.78;2.92;;;;;;;;;;4994003;28;20241;-63
2022/04/20 09:16:35;;;;;;;4.63;2.90;;;;;;;;;;4993765;28;20695;-63
2022/04/20 09:19:01;;;;;;;5.40;2.72;;;;;;;;;;4992653;28;20288;-63
2022/04/20 09:21:26;;;;;;;5.40;2.72;;;;;;;;;;4993616;28;20233;-63
2022/04/20 09:24:03;;;;;;;5.95;2.53;;;;;;;;;;4993136;28;20209;-63
2022/04/20 09:26:29;;;;;;;4.90;2.70;;;;;;;;;;4993487;28;20217;-63
2022/04/20 09:29:10;;;;;;;5.00;2.95;;;;;;;;;;4993925;28;20279;-63
2022/04/20 09:31:42;;;;;;;7.68;2.63;;;;;;;;;;4994422;28;20226;-63
2022/04/20 09:34:08;;;;;;;4.35;2.92;;;;;;;;;;4993544;28;20213;-63
2022/04/20 09:36:46;;;;;;;4.00;2.60;;;;;;;;;;4994729;28;20217;-63
2022/04/20 09:39:12;;;;;;;5.45;2.58;;;;;;;;;;4993060;28;20220;-63
2022/04/20 09:41:58;;;;;;;4.10;2.63;;;;;;;;;;4993518;28;20205;-63
2022/04/20 09:44:24;;;;;;;5.95;2.65;;;;;;;;;;4994457;28;20201;-63
2022/04/20 09:49:36;;;;;;;5.43;2.45;;;;;;;;;;4993973;28;20213;-63
2022/04/20 09:52:09;;;;;;;5.70;2.63;;;;;;;;;;4994077;28;20280;-63
2022/04/20 09:54:36;;;;;;;6.20;2.33;;;;;;;;;;4993487;28;20247;-63
2022/04/20 09:57:10;;;;;;;4.50;2.70;;;;;;;;;;4992678;28;20228;-63
2022/04/20 09:59:36;;;;;;;6.00;2.75;;;;;;;;;;4994176;28;20223;-62
2022/04/20 10:02:09;;;;;;;4.82;2.63;;;;;;;;;;4991542;28;20224;-63
2022/04/20 10:04:34;;;;;;;5.50;2.70;;;;;;;;;;4994125;28;20220;-63
2022/04/20 10:06:59;;;;;;;5.88;2.50;;;;;;;;;;4993276;28;20219;-63
2022/04/20 10:09:25;;;;;;;5.30;2.57;;;;;;;;;;4991885;28;20440;-62
2022/04/20 10:11:50;;;;;;;3.80;2.67;;;;;;;;;;4993807;28;20307;-60
2022/04/20 10:16:59;;;;;;;7.15;2.67;;;;;;;;;;4993112;28;20248;-61
2022/04/20 10:19:26;;;;;;;5.43;2.70;;;;;;;;;;4993511;28;20206;-62
2022/04/20 10:21:53;;;;;;;4.40;2.90;;;;;;;;;;4991836;28;20209;-62
2022/04/20 10:24:19;;;;;;;4.38;2.50;;;;;;;;;;4990073;28;20213;-62
2022/04/20 10:26:45;;;;;;;5.13;2.50;;;;;;;;;;4993778;28;20608;-62
2022/04/20 10:29:16;;;;;;;4.65;2.20;;;;;;;;;;4992332;28;20724;-62
2022/04/20 10:31:43;;;;;;;5.35;2.95;;;;;;;;;;4992461;28;20229;-62
2022/04/20 10:34:12;;;;;;;4.97;2.78;;;;;;;;;;4993292;28;20296;-62
2022/04/20 10:36:37;;;;;;;3.90;2.40;;;;;;;;;;4993149;28;20213;-62
2022/04/20 10:39:19;;;;;;;5.35;2.63;;;;;;;;;;4992596;28;20665;-62
2022/04/20 10:42:05;;;;;;;5.35;2.70;;;;;;;;;;4993654;28;20212;-62
2022/04/20 10:44:47;;;;;;;3.92;2.17;;;;;;;;;;4992824;28;20704;-62
2022/04/20 10:47:14;;;;;;;6.63;2.50;;;;;;;;;;5009137;28;20228;-62
2022/04/20 10:49:40;;;;;;;4.28;2.30;;;;;;;;;;5010835;28;20215;-62
2022/04/20 10:52:21;;;;;;;4.78;2.53;;;;;;;;;;5012677;28;20220;-62
2022/04/20 10:55:18;;;;;;;8.13;2.90;;;;;;;;;;5011321;28;20208;-62
2022/04/20 10:57:45;;;;;;;5.15;2.35;;;;;;;;;;5004520;28;20225;-62
2022/04/20 11:00:16;;;;;;;4.60;2.33;;;;;;;;;;4992763;28;20680;-62
2022/04/20 11:02:48;;;;;;;4.43;2.13;;;;;;;;;;4992564;28;20216;-62
2022/04/20 11:05:14;;;;;;;4.25;2.50;;;;;;;;;;4990035;28;20213;-63
2022/04/20 11:07:46;;;;;;;8.30;2.50;;;;;;;;;;4990913;28;20209;-63
2022/04/20 11:10:11;;;;;;;7.47;2.40;;;;;;;;;;4989069;28;20229;-63
2022/04/20 11:18:45;;;;;;;4.15;2.60;;;;;;;;;;4990128;28;20256;-63
2022/04/20 11:21:04;;;;;;;6.78;2.75;;;;;;;;;;4989515;28;20299;-63
2022/04/20 11:23:48;;;;;;;5.03;2.80;;;;;;;;;;4990840;28;20213;-62
2022/04/20 11:26:20;;;;;;;5.45;2.70;;;;;;;;;;4989882;28;20227;-63
2022/04/20 11:28:45;;;;;;;6.43;2.78;;;;;;;;;;4991155;28;20201;-63
2022/04/20 11:31:10;;;;;;;4.72;2.70;;;;;;;;;;4990384;28;20283;-63
2022/04/20 11:33:36;;;;;;;8.18;2.80;;;;;;;;;;4989101;28;20284;-63
2022/04/20 11:36:01;;;;;;;5.32;3.03;;;;;;;;;;4989240;28;20213;-63
2022/04/20 11:38:36;;;;;;;4.38;2.70;;;;;;;;;;4990140;28;20212;-63
2022/04/20 11:41:01;;;;;;;5.47;3.00;;;;;;;;;;4990449;28;20212;-63
2022/04/20 11:43:26;;;;;;;5.13;2.35;;;;;;;;;;4990992;28;20272;-62
2022/04/20 11:45:53;;;;;;;5.63;2.90;;;;;;;;;;4990180;28;20236;-62
2022/04/20 11:48:20;;;;;;;4.28;2.58;;;;;;;;;;4990500;28;20761;-63
2022/04/20 11:50:53;;;;;;;4.32;2.63;;;;;;;;;;4989578;28;20275;-62
2022/04/20 11:53:19;;;;;;;6.95;2.97;;;;;;;;;;4991985;28;20240;-63
2022/04/20 11:55:46;;;;;;;5.43;2.85;;;;;;;;;;4994352;28;20233;-63
2022/04/20 11:58:12;;;;;;;6.65;2.83;;;;;;;;;;4994273;28;20304;-63
2022/04/20 12:00:37;;;;;;;5.32;2.88;;;;;;;;;;4993500;28;20216;-63
2022/04/20 12:03:02;;;;;;;6.07;2.55;;;;;;;;;;4994352;28;20209;-62
2022/04/20 12:05:28;;;;;;;4.78;3.03;;;;;;;;;;4994570;28;20734;-62
2022/04/20 12:07:53;;;;;;;4.10;2.53;;;;;;;;;;4993458;28;20216;-62
2022/04/20 12:10:18;;;;;;;5.80;2.38;;;;;;;;;;4993616;28;20613;-62
2022/04/20 12:12:43;;;;;;;6.20;2.83;;;;;;;;;;4994495;28;20343;-63
2022/04/20 12:15:09;;;;;;;4.72;2.72;;;;;;;;;;4993035;28;20217;-62
2022/04/20 12:17:34;;;;;;;3.80;2.67;;;;;;;;;;4994963;28;20202;-62
2022/04/20 12:20:00;;;;;;;4.72;2.45;;;;;;;;;;4995646;28;20201;-63
2022/04/20 12:22:25;;;;;;;3.67;2.33;;;;;;;;;;4994857;28;20209;-62
2022/04/20 12:25:04;;;;;;;6.88;2.70;;;;;;;;;;4995523;28;20268;-62
2022/04/20 12:27:29;;;;;;;5.35;2.70;;;;;;;;;;4995788;28;20213;-62
2022/04/20 12:29:57;;;;;;;6.35;2.53;;;;;;;;;;4992920;28;20271;-62
2022/04/20 12:32:24;;;;;;;6.35;3.50;;;;;;;;;;4995512;28;20681;-62
2022/04/20 12:35:01;;;;;;;7.07;3.53;;;;;;;;;;4995289;28;20236;-62
2022/04/20 12:37:29;;;;;;;7.40;2.33;;;;;;;;;;4995362;28;20240;-61
2022/04/20 12:39:54;;;;;;;5.47;2.60;;;;;;;;;;5011497;28;20232;-62
2022/04/20 12:42:19;;;;;;;4.60;2.75;;;;;;;;;;5014261;28;21583;-62
2022/04/20 12:44:47;;;;;;;5.35;2.40;;;;;;;;;;5012273;28;20755;-62
2022/04/20 12:47:14;;;;;;;4.40;2.22;;;;;;;;;;4994228;28;20312;-62
2022/04/20 12:49:40;;;;;;;4.85;2.40;;;;;;;;;;4994672;28;20224;-62
2022/04/20 12:52:08;;;;;;;3.58;2.45;;;;;;;;;;4994781;28;20217;-62
2022/04/20 12:54:34;;;;;;;4.85;2.55;;;;;;;;;;4995613;28;20243;-62
2022/04/20 13:02:26;;;;;;;5.50;2.20;;;;;;;;;;4995226;28;20263;-62
2022/04/20 13:04:52;;;;;;;4.47;2.08;;;;;;;;;;4988314;28;20300;-62
2022/04/20 13:07:17;;;;;;;3.92;1.98;;;;;;;;;;4985455;28;20213;-62
2022/04/20 13:09:42;;;;;;;6.43;2.20;;;;;;;;;;4985825;28;20224;-62
2022/04/20 13:12:08;;;;;;;4.80;2.40;;;;;;;;;;4974337;28;20348;-62
2022/04/20 13:14:33;;;;;;;6.55;2.00;;;;;;;;;;4976019;28;20209;-62
2022/04/20 13:16:58;;;;;;;4.13;2.00;;;;;;;;;;4974927;28;20210;-61
2022/04/20 13:19:24;;;;;;;4.45;2.20;;;;;;;;;;4975450;28;20218;-62
2022/04/20 13:21:49;;;;;;;3.00;1.90;;;;;;;;;;4977315;28;20245;-61
2022/04/20 13:27:54;;;;;;;6.85;2.08;;;;;;;;;;4987279;28;20219;-62
2022/04/20 13:29:46;;;;;;;4.03;1.70;;;;;;;;;;5014146;28;20215;-62
2022/04/20 13:32:12;;;;;;;4.18;1.60;;;;;;;;;;4996882;28;20587;-62
2022/04/20 13:34:38;;;;;;;3.25;1.70;;;;;;;;;;4995011;28;20213;-62
2022/04/20 13:37:03;;;;;;;2.67;2.03;;;;;;;;;;4989774;28;20271;-62
2022/04/20 13:39:28;;;;;;;4.53;1.70;;;;;;;;;;4983404;28;20202;-62
2022/04/20 13:41:54;;;;;;;4.07;1.67;;;;;;;;;;4975143;28;20222;-62
2022/04/20 13:44:19;;;;;;;3.47;1.40;;;;;;;;;;4975098;28;20210;-62
2022/04/20 13:46:44;;;;;;;3.30;1.60;;;;;;;;;;4974690;28;20233;-62
2022/04/20 13:49:10;;;;;;;3.40;1.50;;;;;;;;;;4974848;28;20224;-61
2022/04/20 13:51:35;;;;;;;4.85;1.60;;;;;;;;;;4990592;28;20229;-60
2022/04/20 13:54:03;;;;;;;4.53;1.58;;;;;;;;;;4985200;28;20577;-63
2022/04/20 13:56:28;;;;;;;4.82;1.95;;;;;;;;;;4964312;28;20225;-61
2022/04/20 13:58:53;;;;;;;5.38;1.77;;;;;;;;;;4993385;28;20267;-61
2022/04/20 14:01:20;;;;;;;3.08;1.73;;;;;;;;;;4993116;28;20593;-62
2022/04/20 14:03:45;;;;;;;4.68;2.25;;;;;;;;;;4994402;28;20212;-61
2022/04/20 14:06:11;;;;;;;3.50;1.58;;;;;;;;;;4992856;28;20312;-62
2022/04/20 14:08:37;;;;;;;7.80;1.67;;;;;;;;;;4994144;28;20220;-62
2022/04/20 14:11:02;;;;;;;2.13;1.50;;;;;;;;;;4993793;28;20221;-62
2022/04/20 14:13:27;;;;;;;4.00;1.65;;;;;;;;;;4991832;28;20224;-62
2022/04/20 14:15:53;;;;;;;3.65;1.70;;;;;;;;;;4993304;28;20213;-61
2022/04/20 14:18:18;;;;;;;5.65;1.83;;;;;;;;;;4993305;28;20285;-74
2022/04/20 14:20:43;;;;;;;4.00;2.08;;;;;;;;;;5004877;28;20295;-75
2022/04/20 14:23:08;;;;;;;5.75;1.83;;;;;;;;;;5011591;28;20625;-78
2022/04/20 14:33:45;;;;;;;3.08;2.03;;;;;;;;;;4992784;28;20703;-75
2022/04/20 14:36:10;;;;;;;2.90;1.65;;;;;;;;;;4992230;28;20213;-76
2022/04/20 14:38:36;;;;;;;3.05;1.90;;;;;;;;;;5004469;28;20209;-74
2022/04/20 14:41:01;;;;;;;5.10;1.80;;;;;;;;;;5013123;28;20236;-75
2022/04/20 14:43:26;;;;;;;3.70;1.83;;;;;;;;;;5012658;28;20540;-75
2022/04/20 14:45:51;;;;;;;4.03;1.90;;;;;;;;;;5013149;28;20625;-77
2022/04/20 14:48:17;;;;;;;7.55;2.25;;;;;;;;;;5010857;28;20303;-76
2022/04/20 14:50:43;;;;;;;5.22;2.00;;;;;;;;;;5011991;28;20757;-74
2022/04/20 14:53:09;;;;;;;4.25;1.98;;;;;;;;;;5012519;28;20295;-75
2022/04/20 14:55:36;;;;;;;5.38;2.17;;;;;;;;;;5001228;28;20324;-75
2022/04/20 14:58:01;;;;;;;7.32;2.25;;;;;;;;;;4992739;28;20584;-74
2022/04/20 15:00:27;;;;;;;3.40;2.17;;;;;;;;;;4993134;28;20248;-74
2022/04/20 15:02:52;;;;;;;3.30;1.80;;;;;;;;;;4973621;28;20515;-74
2022/04/20 15:05:17;;;;;;;3.72;1.90;;;;;;;;;;4970603;28;20225;-75
2022/04/20 15:07:44;;;;;;;5.00;2.42;;;;;;;;;;4971403;28;20232;-75
2022/04/20 15:10:10;;;;;;;3.67;2.20;;;;;;;;;;4973077;28;20252;-74
2022/04/20 15:12:36;;;;;;;2.92;1.90;;;;;;;;;;4970433;28;20666;-75
2022/04/20 15:15:02;;;;;;;3.30;2.05;;;;;;;;;;4966969;28;20205;-76
2022/04/20 15:17:27;;;;;;;4.38;2.65;;;;;;;;;;4973127;28;20273;-75
2022/04/20 15:19:53;;;;;;;3.15;2.10;;;;;;;;;;4974962;28;20209;-74
2022/04/20 15:22:19;;;;;;;3.90;2.97;;;;;;;;;;4985217;28;20216;-74
2022/04/20 15:24:44;;;;;;;4.85;2.70;;;;;;;;;;4966572;28;20206;-74